createdAt,value
2018-08-28T00:05:29.176Z,99558.59
2018-08-28T00:11:33.902Z,99568.91
2018-08-28T00:17:38.520Z,99568.64
2018-08-28T00:23:43.158Z,99575.46
2018-08-28T00:29:47.802Z,99581.27
2018-08-28T00:35:52.425Z,99590.09
2018-08-28T00:41:57.022Z,99594.24
2018-08-28T00:48:01.699Z,99590.72
2018-08-28T00:54:06.400Z,99600.32
2018-08-28T01:00:11.058Z,99600.86
2018-08-28T01:06:15.706Z,99610.88
2018-08-28T01:12:20.318Z,99612.52
2018-08-28T01:18:24.926Z,99614.23
2018-08-28T01:24:29.617Z,99623.12
2018-08-28T01:30:35.557Z,99631.23
2018-08-28T01:36:40.322Z,99628.99
2018-08-28T01:42:44.941Z,99631.83
2018-08-28T01:48:49.560Z,99625.78
2018-08-28T01:54:54.168Z,99635.27
2018-08-28T02:00:58.801Z,99638.98
2018-08-28T02:07:03.509Z,99643.84
2018-08-28T02:13:08.153Z,99640.45
2018-08-28T02:19:12.765Z,99640.50
2018-08-28T02:25:17.414Z,99637.91
2018-08-28T02:31:22.058Z,99649.56
2018-08-28T02:37:27.653Z,99648.55
2018-08-28T02:43:32.970Z,99647.37
2018-08-28T02:49:37.732Z,99644.75
2018-08-28T02:55:42.352Z,99653.30
2018-08-28T03:01:46.983Z,99653.13
2018-08-28T03:07:51.603Z,99657.45
2018-08-28T03:13:56.243Z,99664.95
2018-08-28T03:20:00.894Z,99662.75
2018-08-28T03:26:05.552Z,99658.84
2018-08-28T03:32:10.234Z,99667.72
2018-08-28T03:38:15.065Z,99673.70
2018-08-28T03:44:19.672Z,99679.81
2018-08-28T03:50:24.299Z,99683.56
2018-08-28T03:56:28.919Z,99686.63
2018-08-28T04:02:33.552Z,99697.20
2018-08-28T04:08:38.165Z,99691.52
2018-08-28T04:14:42.747Z,99706.06
2018-08-28T04:20:47.405Z,99696.44
2018-08-28T04:26:52.069Z,99704.80
2018-08-28T04:32:56.634Z,99713.21
2018-08-28T04:39:01.285Z,99711.05
2018-08-28T04:45:06.093Z,99729.94
2018-08-28T04:51:10.814Z,99731.74
2018-08-28T04:57:15.416Z,99738.27
2018-08-28T05:03:20.005Z,99742.48
2018-08-28T05:09:24.592Z,99742.56
2018-08-28T05:15:29.186Z,99749.23
2018-08-28T05:21:33.913Z,99755.86
2018-08-28T05:27:38.485Z,99763.55
2018-08-28T05:33:43.099Z,99767.82
2018-08-28T05:39:47.701Z,99765.80
2018-08-28T05:45:52.340Z,99774.98
2018-08-28T05:51:56.986Z,99777.63
2018-08-28T05:58:01.626Z,99785.64
2018-08-28T06:04:06.822Z,99780.09
2018-08-28T06:10:11.461Z,99782.48
2018-08-28T06:16:16.142Z,99790.47
2018-08-28T06:22:20.772Z,99794.66
2018-08-28T06:28:25.366Z,99798.91
2018-08-28T06:34:29.985Z,99800.88
2018-08-28T06:40:34.619Z,99804.05
2018-08-28T06:46:39.269Z,99808.52
2018-08-28T06:52:43.905Z,99814.20
2018-08-28T06:58:49.692Z,99810.45
2018-08-28T07:04:54.654Z,99816.78
2018-08-28T07:10:59.632Z,99814.38
2018-08-28T07:17:04.454Z,99819.44
2018-08-28T07:23:09.151Z,99818.33
2018-08-28T07:29:13.750Z,99827.84
2018-08-28T07:35:18.399Z,99839.31
2018-08-28T07:41:23.053Z,99840.19
2018-08-28T07:47:27.666Z,99839.45
2018-08-28T07:53:32.269Z,99850.34
2018-08-28T07:59:36.877Z,99854.92
2018-08-28T08:05:41.475Z,99849.59
2018-08-28T08:11:46.103Z,99853.28
2018-08-28T08:17:50.715Z,99856.89
2018-08-28T08:23:55.373Z,99861.53
2018-08-28T08:30:00.004Z,99854.82
2018-08-28T08:36:04.636Z,99858.98
2018-08-28T08:42:09.359Z,99854.77
2018-08-28T08:48:13.942Z,99852.33
2018-08-28T08:54:18.952Z,99854.00
2018-08-28T09:00:24.189Z,99846.31
2018-08-28T09:06:28.761Z,99852.52
2018-08-28T09:12:33.381Z,99853.70
2018-08-28T09:18:37.989Z,99847.06
2018-08-28T09:24:42.642Z,99843.03
2018-08-28T09:30:47.221Z,99843.16
2018-08-28T09:36:51.834Z,99838.19
2018-08-28T09:42:56.432Z,99832.13
2018-08-28T09:49:01.020Z,99836.74
2018-08-28T09:55:05.665Z,99838.73
2018-08-28T10:01:15.381Z,99831.50
2018-08-28T10:07:20.004Z,99838.89
2018-08-28T10:13:24.610Z,99836.13
2018-08-28T10:19:29.185Z,99836.86
2018-08-28T10:25:34.146Z,99842.06
2018-08-28T10:31:38.770Z,99839.36
2018-08-28T10:37:43.349Z,99837.75
2018-08-28T10:43:48.070Z,99836.10
2018-08-28T10:49:52.646Z,99831.73
2018-08-28T10:55:57.297Z,99828.49
2018-08-28T11:02:01.910Z,99817.66
2018-08-28T11:08:06.614Z,99811.28
2018-08-28T11:14:11.230Z,99814.59
2018-08-28T11:20:15.836Z,99816.52
2018-08-28T11:26:20.619Z,99817.64
2018-08-28T11:32:25.270Z,99814.62
2018-08-28T11:38:29.893Z,99808.66
2018-08-28T11:44:34.515Z,99819.05
2018-08-28T11:50:39.158Z,99816.06
2018-08-28T11:56:43.723Z,99807.77
2018-08-28T12:02:48.357Z,99808.50
2018-08-28T12:08:52.958Z,99806.61
2018-08-28T12:14:57.623Z,99809.61
2018-08-28T12:21:02.267Z,99811.34
2018-08-28T12:27:07.059Z,99807.88
2018-08-28T12:33:11.771Z,99799.16
2018-08-28T12:39:16.335Z,99790.89
2018-08-28T12:45:20.988Z,99785.85
2018-08-28T12:51:25.691Z,99788.07
2018-08-28T12:57:30.288Z,99789.84
2018-08-28T13:03:34.941Z,99788.41
2018-08-28T13:09:39.565Z,99795.05
2018-08-28T13:15:44.190Z,99792.95
2018-08-28T13:21:48.826Z,99790.52
2018-08-28T13:27:53.453Z,99783.84
2018-08-28T13:33:58.097Z,99785.41
2018-08-28T13:40:02.755Z,99783.08
2018-08-28T13:46:07.371Z,99770.71
2018-08-28T13:52:12.010Z,99764.65
2018-08-28T13:58:16.714Z,99765.75
2018-08-28T14:04:21.374Z,99754.34
2018-08-28T14:10:26.054Z,99755.73
2018-08-28T14:16:30.663Z,99757.19
2018-08-28T14:22:35.379Z,99751.45
2018-08-28T14:28:39.976Z,99757.05
2018-08-28T14:34:44.623Z,99746.66
2018-08-28T14:40:49.292Z,99743.48
2018-08-28T14:46:53.908Z,99728.20
2018-08-28T14:52:58.558Z,99723.14
2018-08-28T14:59:03.245Z,99716.61
2018-08-28T15:05:07.943Z,99710.72
2018-08-28T15:11:12.580Z,99709.33
2018-08-28T15:17:17.202Z,99715.28
2018-08-28T15:23:21.821Z,99712.09
2018-08-28T15:29:26.433Z,99719.61
2018-08-28T15:35:31.116Z,99715.50
2018-08-28T15:41:35.821Z,99709.67
2018-08-28T15:47:40.442Z,99699.86
2018-08-28T15:53:45.092Z,99694.31
2018-08-28T15:59:49.740Z,99685.52
2018-08-28T16:05:54.413Z,99679.59
2018-08-28T16:11:58.997Z,99682.67
2018-08-28T16:18:03.635Z,99682.58
2018-08-28T16:24:08.180Z,99675.56
2018-08-28T16:30:12.796Z,99677.70
2018-08-28T16:36:17.431Z,99673.42
2018-08-28T16:42:22.045Z,99678.83
2018-08-28T16:48:26.768Z,99679.47
2018-08-28T16:54:31.393Z,99682.41
2018-08-28T17:00:36.062Z,99666.06
2018-08-28T17:06:40.668Z,99670.78
2018-08-28T17:12:45.320Z,99662.16
2018-08-28T17:18:49.929Z,99670.11
2018-08-28T17:24:55.378Z,99667.34
2018-08-28T17:31:00.104Z,99662.66
2018-08-28T17:37:05.193Z,99658.59
2018-08-28T17:43:09.650Z,99663.25
2018-08-28T17:49:14.458Z,99663.38
2018-08-28T17:55:18.951Z,99670.01
2018-08-28T18:01:23.592Z,99669.91
2018-08-28T18:07:28.255Z,99678.14
2018-08-28T18:13:32.914Z,99673.98
2018-08-28T18:19:37.586Z,99681.78
2018-08-28T18:25:42.225Z,99680.42
2018-08-28T18:31:46.886Z,99685.75
2018-08-28T18:37:51.504Z,99681.28
2018-08-28T18:43:56.153Z,99693.11
2018-08-28T18:50:00.757Z,99688.90
2018-08-28T18:56:05.367Z,99693.39
2018-08-28T19:02:10.065Z,99688.55
2018-08-28T19:08:14.721Z,99694.25
2018-08-28T19:14:19.320Z,99688.20
2018-08-28T19:20:23.969Z,99686.73
2018-08-28T19:26:28.554Z,99692.65
2018-08-28T19:32:33.208Z,99691.02
2018-08-28T19:38:37.897Z,99688.11
2018-08-28T19:44:42.516Z,99681.11
2018-08-28T19:50:47.132Z,99684.58
2018-08-28T19:56:51.781Z,99679.34
2018-08-28T20:02:56.425Z,99671.31
2018-08-28T20:09:01.315Z,99673.95
2018-08-28T20:15:06.045Z,99665.18
2018-08-28T20:21:10.691Z,99668.76
2018-08-28T20:27:15.313Z,99660.09
2018-08-28T20:33:20.934Z,99665.37
2018-08-28T20:39:25.910Z,99660.03
2018-08-28T20:45:30.939Z,99657.05
2018-08-28T20:51:35.958Z,99642.53
2018-08-28T20:57:40.904Z,99643.25
2018-08-28T21:03:45.852Z,99643.61
2018-08-28T21:09:50.815Z,99647.39
2018-08-28T21:15:55.785Z,99640.25
2018-08-28T21:22:00.384Z,99635.99
2018-08-28T21:28:05.063Z,99635.68
2018-08-28T21:34:09.634Z,99635.47
2018-08-28T21:40:14.229Z,99635.64
2018-08-28T21:46:19.038Z,99635.53
2018-08-28T21:52:23.665Z,99631.42
2018-08-28T21:58:28.324Z,99638.41
2018-08-28T22:04:33.040Z,99625.56
2018-08-28T22:10:37.667Z,99634.49
2018-08-28T22:16:42.283Z,99634.78
2018-08-28T22:22:47.091Z,99630.13
2018-08-28T22:28:51.726Z,99633.29
2018-08-28T22:34:56.363Z,99632.63
2018-08-28T22:41:01.012Z,99626.84
2018-08-28T22:47:05.694Z,99624.67
2018-08-28T22:53:10.365Z,99619.91
2018-08-28T22:59:15.013Z,99621.64
2018-08-28T23:05:19.783Z,99612.17
2018-08-28T23:11:24.450Z,99610.95
2018-08-28T23:17:29.146Z,99606.58
2018-08-28T23:23:33.792Z,99595.60
2018-08-28T23:29:38.565Z,99589.89
2018-08-28T23:35:43.512Z,99577.13
2018-08-28T23:41:48.533Z,99579.13
2018-08-28T23:47:53.486Z,99573.71
2018-08-28T23:53:58.429Z,99573.05
